createdAt,value
2018-07-14T00:00:33.516Z,77.53
2018-07-14T00:03:03.696Z,77.50
2018-07-14T00:05:33.808Z,77.91
2018-07-14T00:08:03.511Z,78.04
2018-07-14T00:10:33.765Z,77.68
2018-07-14T00:13:03.621Z,77.88
2018-07-14T00:15:33.672Z,77.27
2018-07-14T00:18:03.159Z,77.30
2018-07-14T00:20:33.624Z,76.40
2018-07-14T00:23:03.956Z,77.13
2018-07-14T00:25:38.588Z,78.62
2018-07-14T00:28:11.292Z,78.77
2018-07-14T00:30:42.650Z,79.42
2018-07-14T00:33:12.752Z,78.79
2018-07-14T00:35:41.496Z,78.78
2018-07-14T00:38:12.185Z,79.53
2018-07-14T00:40:40.900Z,79.77
2018-07-14T00:43:09.439Z,79.53
2018-07-14T00:45:38.021Z,78.34
2018-07-14T00:48:06.653Z,79.07
2018-07-14T00:50:35.160Z,79.16
2018-07-14T00:53:03.788Z,78.21
2018-07-14T00:55:32.305Z,78.38
2018-07-14T00:58:00.848Z,77.25
2018-07-14T01:00:29.364Z,78.16
2018-07-14T01:02:57.904Z,77.99
2018-07-14T01:05:26.451Z,77.85
2018-07-14T01:07:55.001Z,77.89
2018-07-14T01:10:23.525Z,78.77
2018-07-14T01:12:52.145Z,78.68
2018-07-14T01:15:20.675Z,79.48
2018-07-14T01:17:49.227Z,80.75
2018-07-14T01:20:17.792Z,80.47
2018-07-14T01:22:46.322Z,81.19
2018-07-14T01:25:14.885Z,80.34
2018-07-14T01:27:43.397Z,79.25
2018-07-14T01:30:12.060Z,79.57
2018-07-14T01:32:41.096Z,80.45
2018-07-14T01:35:09.738Z,80.46
2018-07-14T01:37:38.265Z,81.17
2018-07-14T01:40:06.857Z,80.92
2018-07-14T01:42:35.381Z,81.56
2018-07-14T01:45:03.949Z,81.34
2018-07-14T01:47:32.469Z,81.68
2018-07-14T01:50:01.026Z,81.97
2018-07-14T01:52:29.544Z,81.52
2018-07-14T01:54:58.372Z,80.17
2018-07-14T01:57:26.915Z,82.19
2018-07-14T01:59:55.452Z,81.45
2018-07-14T02:02:24.291Z,80.77
2018-07-14T02:04:52.844Z,80.59
2018-07-14T02:07:21.359Z,80.51
2018-07-14T02:09:49.912Z,81.12
2018-07-14T02:12:18.420Z,80.24
2018-07-14T02:14:46.968Z,80.93
2018-07-14T02:17:15.496Z,82.21
2018-07-14T02:19:44.079Z,81.90
2018-07-14T02:22:12.595Z,80.98
2018-07-14T02:24:41.257Z,80.67
2018-07-14T02:27:09.788Z,80.68
2018-07-14T02:29:38.341Z,80.74
2018-07-14T02:32:06.893Z,81.33
2018-07-14T02:34:35.508Z,81.47
2018-07-14T02:37:04.084Z,82.11
2018-07-14T02:39:32.679Z,81.67
2018-07-14T02:42:01.268Z,82.84
2018-07-14T02:44:29.936Z,82.51
2018-07-14T02:46:58.520Z,81.56
2018-07-14T02:49:27.095Z,82.41
2018-07-14T02:51:55.645Z,82.38
2018-07-14T02:54:24.219Z,81.84
2018-07-14T02:56:52.775Z,82.12
2018-07-14T02:59:21.393Z,83.05
2018-07-14T03:01:49.965Z,82.83
2018-07-14T03:04:18.572Z,82.44
2018-07-14T03:06:47.149Z,81.50
2018-07-14T03:09:15.693Z,81.78
2018-07-14T03:11:44.269Z,81.39
2018-07-14T03:14:12.801Z,82.32
2018-07-14T03:16:41.546Z,82.03
2018-07-14T03:19:10.297Z,81.92
2018-07-14T03:21:38.883Z,83.93
2018-07-14T03:24:07.432Z,85.05
2018-07-14T03:26:36.033Z,83.74
2018-07-14T03:29:04.621Z,83.07
2018-07-14T03:31:33.195Z,83.85
2018-07-14T03:34:01.777Z,83.96
2018-07-14T03:36:30.345Z,83.66
2018-07-14T03:38:58.907Z,84.50
2018-07-14T03:41:27.505Z,82.58
2018-07-14T03:43:56.068Z,82.77
2018-07-14T03:46:24.648Z,81.93
2018-07-14T03:48:53.187Z,83.74
2018-07-14T03:51:21.775Z,83.86
2018-07-14T03:53:50.328Z,82.71
2018-07-14T03:56:18.900Z,82.72
2018-07-14T03:58:47.431Z,82.69
2018-07-14T04:01:15.996Z,83.35
2018-07-14T04:03:44.556Z,82.59
2018-07-14T04:06:13.400Z,84.32
2018-07-14T04:08:42.388Z,83.87
2018-07-14T04:11:10.976Z,83.87
2018-07-14T04:13:39.560Z,83.71
2018-07-14T04:16:08.161Z,82.93
2018-07-14T04:18:36.688Z,82.63
2018-07-14T04:21:05.289Z,82.77
2018-07-14T04:23:33.824Z,83.08
2018-07-14T04:26:02.389Z,85.32
2018-07-14T04:28:30.924Z,84.63
2018-07-14T04:30:59.516Z,83.52
2018-07-14T04:33:28.078Z,83.47
2018-07-14T04:35:56.636Z,82.67
2018-07-14T04:38:25.160Z,84.08
2018-07-14T04:40:53.733Z,85.07
2018-07-14T04:43:22.274Z,84.46
2018-07-14T04:45:50.838Z,86.93
2018-07-14T04:48:19.404Z,84.60
2018-07-14T04:50:47.968Z,83.69
2018-07-14T04:53:16.588Z,82.62
2018-07-14T04:55:45.070Z,83.00
2018-07-14T04:58:13.617Z,82.76
2018-07-14T05:00:42.637Z,83.63
2018-07-14T05:03:11.197Z,83.84
2018-07-14T05:05:39.781Z,83.49
2018-07-14T05:08:08.348Z,83.16
2018-07-14T05:10:36.872Z,83.28
2018-07-14T05:13:05.556Z,84.28
2018-07-14T05:15:34.101Z,83.50
2018-07-14T05:18:02.705Z,83.15
2018-07-14T05:20:31.265Z,82.67
2018-07-14T05:22:59.849Z,82.89
2018-07-14T05:25:28.441Z,82.06
2018-07-14T05:27:57.010Z,81.60
2018-07-14T05:30:25.584Z,82.05
2018-07-14T05:32:54.165Z,81.30
2018-07-14T05:35:22.796Z,82.81
2018-07-14T05:37:51.656Z,81.84
2018-07-14T05:40:20.200Z,80.87
2018-07-14T05:42:48.768Z,78.48
2018-07-14T05:45:17.308Z,77.27
2018-07-14T05:47:45.903Z,78.12
2018-07-14T05:50:15.116Z,77.33
2018-07-14T05:52:43.712Z,78.18
2018-07-14T05:55:12.264Z,79.04
2018-07-14T05:57:40.849Z,77.96
2018-07-14T06:00:10.068Z,76.72
2018-07-14T06:02:38.656Z,76.74
2018-07-14T06:05:07.224Z,76.00
2018-07-14T06:07:35.819Z,75.43
2018-07-14T06:10:04.416Z,75.57
2018-07-14T06:12:32.987Z,75.19
2018-07-14T06:15:01.537Z,75.06
2018-07-14T06:17:30.136Z,75.18
2018-07-14T06:19:58.720Z,74.09
2018-07-14T06:22:27.282Z,73.78
2018-07-14T06:24:55.825Z,73.45
2018-07-14T06:27:24.417Z,73.56
2018-07-14T06:29:53.217Z,74.16
2018-07-14T06:32:21.790Z,74.31
2018-07-14T06:34:50.352Z,73.95
2018-07-14T06:37:18.901Z,72.98
2018-07-14T06:39:47.453Z,73.53
2018-07-14T06:42:16.289Z,72.68
2018-07-14T06:44:44.804Z,71.73
2018-07-14T06:47:13.320Z,71.23
2018-07-14T06:49:41.882Z,71.14
2018-07-14T06:52:10.412Z,71.61
2018-07-14T06:54:38.984Z,70.69
2018-07-14T06:57:07.552Z,71.73
2018-07-14T06:59:36.108Z,70.75
2018-07-14T07:02:11.199Z,70.42
2018-07-14T07:04:39.760Z,70.18
2018-07-14T07:07:08.485Z,69.48
2018-07-14T07:09:37.035Z,69.04
2018-07-14T07:12:05.568Z,69.29
2018-07-14T07:14:34.128Z,69.70
2018-07-14T07:17:02.712Z,68.85
2018-07-14T07:19:31.283Z,69.76
2018-07-14T07:21:59.821Z,68.71
2018-07-14T07:24:28.389Z,67.73
2018-07-14T07:26:56.921Z,67.31
2018-07-14T07:29:25.465Z,68.28
2018-07-14T07:31:53.998Z,65.60
2018-07-14T07:34:22.596Z,64.28
2018-07-14T07:36:51.153Z,64.75
2018-07-14T07:39:19.709Z,64.06
2018-07-14T07:41:48.269Z,63.48
2018-07-14T07:44:17.124Z,62.33
2018-07-14T07:46:46.482Z,62.09
2018-07-14T07:49:15.046Z,61.70
2018-07-14T07:51:43.577Z,60.90
2018-07-14T07:54:12.139Z,60.88
2018-07-14T07:56:40.664Z,61.72
2018-07-14T07:59:09.331Z,61.15
2018-07-14T08:01:37.828Z,59.69
2018-07-14T08:04:06.468Z,58.83
2018-07-14T08:06:35.274Z,57.33
2018-07-14T08:09:04.594Z,57.29
2018-07-14T08:11:33.117Z,56.97
2018-07-14T08:14:11.992Z,57.58
2018-07-14T08:16:53.954Z,56.80
2018-07-14T08:19:28.365Z,56.46
2018-07-14T08:22:05.555Z,59.08
2018-07-14T08:24:34.114Z,57.07
2018-07-14T08:27:02.661Z,55.24
2018-07-14T08:29:31.223Z,56.35
2018-07-14T08:31:59.737Z,57.37
2018-07-14T08:34:28.480Z,56.53
2018-07-14T08:36:57.016Z,57.38
2018-07-14T08:39:25.570Z,57.25
2018-07-14T08:41:54.126Z,55.75
2018-07-14T08:44:22.692Z,56.39
2018-07-14T08:46:51.249Z,56.82
2018-07-14T08:49:20.041Z,56.60
2018-07-14T08:51:48.557Z,55.51
2018-07-14T08:54:17.152Z,56.92
2018-07-14T08:56:46.746Z,53.30
2018-07-14T08:59:15.288Z,54.33
2018-07-14T09:01:44.088Z,54.88
2018-07-14T09:04:12.633Z,52.51
2018-07-14T09:06:41.168Z,53.67
2018-07-14T09:09:09.836Z,51.99
2018-07-14T09:11:38.401Z,52.85
2018-07-14T09:14:07.006Z,53.69
2018-07-14T09:16:36.874Z,50.80
2018-07-14T09:19:08.115Z,50.51
2018-07-14T09:21:44.439Z,51.11
2018-07-14T09:24:17.217Z,48.60
2018-07-14T09:26:47.060Z,48.63
2018-07-14T09:29:23.520Z,49.31
2018-07-14T09:31:53.024Z,49.74
2018-07-14T09:34:22.389Z,48.06
2018-07-14T09:36:51.568Z,47.46
2018-07-14T09:39:20.128Z,46.37
2018-07-14T09:41:48.697Z,46.52
2018-07-14T09:44:18.191Z,45.84
2018-07-14T09:46:46.785Z,46.76
2018-07-14T09:49:15.325Z,45.73
2018-07-14T09:51:43.926Z,45.88
2018-07-14T09:54:12.481Z,45.79
2018-07-14T09:56:41.080Z,46.43
2018-07-14T09:59:09.640Z,46.19
2018-07-14T10:01:38.249Z,47.29
2018-07-14T10:04:06.813Z,46.82
2018-07-14T10:06:35.387Z,46.07
2018-07-14T10:09:05.003Z,45.48
2018-07-14T10:11:33.586Z,45.28
2018-07-14T10:14:02.141Z,45.64
2018-07-14T10:16:30.717Z,45.84
2018-07-14T10:18:59.256Z,43.92
2018-07-14T10:21:27.849Z,44.18
2018-07-14T10:23:56.388Z,44.57
2018-07-14T10:26:25.281Z,45.27
2018-07-14T10:28:54.134Z,43.23
2018-07-14T10:31:22.924Z,44.09
2018-07-14T10:33:51.503Z,45.04
2018-07-14T10:36:20.076Z,43.39
2018-07-14T10:38:49.135Z,43.49
2018-07-14T10:41:17.643Z,44.81
2018-07-14T10:43:46.209Z,43.72
2018-07-14T10:46:14.819Z,43.90
2018-07-14T10:48:43.416Z,43.37
2018-07-14T10:51:12.012Z,42.25
2018-07-14T10:53:40.561Z,41.52
2018-07-14T10:56:09.247Z,41.65
2018-07-14T10:58:37.813Z,41.27
2018-07-14T11:01:06.859Z,43.03
2018-07-14T11:03:35.433Z,41.38
2018-07-14T11:06:04.005Z,41.62
2018-07-14T11:08:32.560Z,40.60
2018-07-14T11:11:01.136Z,41.47
2018-07-14T11:13:29.684Z,40.63
2018-07-14T11:15:58.268Z,41.30
2018-07-14T11:18:26.802Z,40.86
2018-07-14T11:20:55.382Z,39.78
2018-07-14T11:23:24.010Z,40.28
2018-07-14T11:25:52.519Z,39.59
2018-07-14T11:28:21.172Z,39.61
2018-07-14T11:30:49.723Z,39.85
2018-07-14T11:33:19.021Z,38.88
2018-07-14T11:35:47.561Z,40.36
2018-07-14T11:38:16.141Z,40.41
2018-07-14T11:40:44.680Z,39.85
2018-07-14T11:43:13.267Z,40.28
2018-07-14T11:45:41.829Z,39.36
2018-07-14T11:48:10.393Z,39.90
2018-07-14T11:50:38.949Z,40.34
2018-07-14T11:53:07.520Z,41.70
2018-07-14T11:55:36.053Z,41.31
2018-07-14T11:58:04.621Z,43.49
2018-07-14T12:00:33.216Z,41.97
2018-07-14T12:03:01.792Z,40.73
2018-07-14T12:05:30.316Z,40.55
2018-07-14T12:07:58.924Z,41.49
2018-07-14T12:10:27.467Z,40.60
2018-07-14T12:12:56.057Z,39.83
2018-07-14T12:15:24.613Z,38.13
2018-07-14T12:17:53.193Z,39.44
2018-07-14T12:20:22.045Z,38.68
2018-07-14T12:22:51.397Z,37.67
2018-07-14T12:25:19.930Z,37.67
2018-07-14T12:27:48.500Z,39.23
2018-07-14T12:30:17.060Z,38.10
2018-07-14T12:32:45.621Z,36.46
2018-07-14T12:35:14.190Z,36.57
2018-07-14T12:37:42.774Z,36.86
2018-07-14T12:40:11.329Z,37.73
2018-07-14T12:42:39.898Z,36.86
2018-07-14T12:45:08.520Z,36.28
2018-07-14T12:47:37.100Z,37.70
2018-07-14T12:50:05.664Z,37.42
2018-07-14T12:52:34.243Z,36.38
2018-07-14T12:55:02.785Z,37.55
2018-07-14T12:57:31.374Z,37.86
2018-07-14T12:59:59.980Z,38.66
2018-07-14T13:02:28.552Z,36.39
2018-07-14T13:04:57.096Z,36.24
2018-07-14T13:07:25.634Z,39.07
2018-07-14T13:09:54.209Z,38.54
2018-07-14T13:12:22.772Z,38.52
2018-07-14T13:14:51.356Z,39.58
2018-07-14T13:17:20.011Z,39.20
2018-07-14T13:19:48.532Z,40.69
2018-07-14T13:22:17.097Z,39.79
2018-07-14T13:24:45.676Z,39.67
2018-07-14T13:27:14.246Z,43.24
2018-07-14T13:29:42.836Z,42.80
2018-07-14T13:32:11.386Z,43.06
2018-07-14T13:34:40.164Z,41.39
2018-07-14T13:37:08.732Z,40.74
2018-07-14T13:39:37.290Z,39.65
2018-07-14T13:42:06.069Z,39.72
2018-07-14T13:44:34.624Z,38.47
2018-07-14T13:47:03.149Z,38.83
2018-07-14T13:49:31.717Z,37.21
2018-07-14T13:52:00.252Z,37.25
2018-07-14T13:54:28.816Z,38.55
2018-07-14T13:57:03.740Z,41.03
2018-07-14T13:59:32.343Z,41.51
2018-07-14T14:02:00.865Z,42.03
2018-07-14T14:04:29.425Z,39.66
2018-07-14T14:06:58.811Z,38.69
2018-07-14T14:09:27.446Z,37.39
2018-07-14T14:12:00.539Z,38.08
2018-07-14T14:14:37.512Z,40.82
2018-07-14T14:17:09.392Z,39.14
2018-07-14T14:19:46.520Z,40.42
2018-07-14T14:22:20.076Z,38.49
2018-07-14T14:24:52.329Z,39.56
2018-07-14T14:27:23.336Z,38.33
2018-07-14T14:29:53.512Z,38.88
2018-07-14T14:32:22.053Z,39.29
2018-07-14T14:34:58.201Z,38.43
2018-07-14T14:37:32.095Z,39.61
2018-07-14T14:40:04.479Z,36.30
2018-07-14T14:42:36.169Z,38.00
2018-07-14T14:45:07.509Z,36.31
2018-07-14T14:47:37.775Z,37.97
2018-07-14T14:50:13.708Z,36.68
2018-07-14T14:52:44.420Z,38.25
2018-07-14T14:55:18.343Z,36.41
2018-07-14T14:57:53.040Z,36.53
2018-07-14T15:00:24.749Z,38.16
2018-07-14T15:02:53.357Z,38.42
2018-07-14T15:05:21.953Z,37.18
2018-07-14T15:07:50.798Z,38.66
2018-07-14T15:10:19.454Z,37.71
2018-07-14T15:12:48.093Z,37.10
2018-07-14T15:15:16.752Z,37.91
2018-07-14T15:17:45.305Z,38.32
2018-07-14T15:20:17.290Z,37.57
2018-07-14T15:22:45.905Z,35.61
2018-07-14T15:25:14.521Z,35.46
2018-07-14T15:27:43.454Z,36.02
2018-07-14T15:30:12.413Z,36.50
2018-07-14T15:32:41.597Z,34.37
2018-07-14T15:35:10.159Z,34.04
2018-07-14T15:37:38.736Z,35.14
2018-07-14T15:40:07.304Z,34.21
2018-07-14T15:42:36.732Z,35.14
2018-07-14T15:45:05.564Z,34.33
2018-07-14T15:47:34.133Z,35.60
2018-07-14T15:50:02.705Z,32.63
2018-07-14T15:52:31.303Z,32.24
2018-07-14T15:54:59.891Z,31.37
2018-07-14T15:57:28.473Z,30.74
2018-07-14T15:59:57.034Z,31.58
2018-07-14T16:02:25.585Z,32.90
2018-07-14T16:04:54.141Z,33.03
2018-07-14T16:07:22.689Z,33.85
2018-07-14T16:09:52.105Z,33.11
2018-07-14T16:12:20.649Z,33.29
2018-07-14T16:14:49.167Z,36.14
2018-07-14T16:17:17.733Z,37.09
2018-07-14T16:19:46.329Z,35.92
2018-07-14T16:22:15.106Z,32.81
2018-07-14T16:24:43.616Z,34.12
2018-07-14T16:27:12.186Z,37.41
2018-07-14T16:29:40.705Z,38.44
2018-07-14T16:32:09.264Z,39.42
2018-07-14T16:34:37.828Z,38.57
2018-07-14T16:37:06.508Z,38.15
2018-07-14T16:39:37.030Z,36.66
2018-07-14T16:42:05.916Z,34.57
2018-07-14T16:44:34.767Z,34.07
2018-07-14T16:47:03.508Z,32.72
2018-07-14T16:49:32.313Z,35.28
2018-07-14T16:52:01.168Z,34.37
2018-07-14T16:54:29.725Z,31.01
2018-07-14T16:56:58.331Z,25.06
2018-07-14T16:59:26.852Z,23.94
2018-07-14T17:01:55.408Z,21.48
2018-07-14T17:04:23.949Z,21.73
2018-07-14T17:06:53.453Z,22.70
2018-07-14T17:09:22.025Z,22.77
2018-07-14T17:11:50.832Z,27.43
2018-07-14T17:14:19.408Z,27.15
2018-07-14T17:16:47.934Z,22.74
2018-07-14T17:19:16.445Z,21.41
2018-07-14T17:21:45.045Z,22.18
2018-07-14T17:24:13.578Z,19.88
2018-07-14T17:26:42.134Z,18.88
2018-07-14T17:29:10.662Z,19.32
2018-07-14T17:31:39.225Z,19.30
2018-07-14T17:34:07.808Z,19.22
2018-07-14T17:36:36.384Z,19.58
2018-07-14T17:39:06.557Z,19.88
2018-07-14T17:41:35.156Z,21.24
2018-07-14T17:44:03.781Z,20.79
2018-07-14T17:46:32.649Z,19.86
2018-07-14T17:49:01.185Z,22.34
2018-07-14T17:51:29.787Z,21.10
2018-07-14T17:53:58.329Z,21.65
2018-07-14T17:56:26.920Z,23.86
2018-07-14T17:58:55.556Z,24.30
2018-07-14T18:01:24.126Z,25.88
2018-07-14T18:03:52.649Z,28.61
2018-07-14T18:06:21.222Z,29.11
2018-07-14T18:08:49.784Z,29.07
2018-07-14T18:11:18.319Z,29.79
2018-07-14T18:13:46.925Z,32.28
2018-07-14T18:16:15.468Z,34.66
2018-07-14T18:18:44.046Z,33.25
2018-07-14T18:21:12.921Z,34.38
2018-07-14T18:23:41.489Z,34.65
2018-07-14T18:26:10.102Z,35.79
2018-07-14T18:28:38.672Z,35.17
2018-07-14T18:31:07.352Z,34.68
2018-07-14T18:33:35.944Z,35.53
2018-07-14T18:36:04.513Z,35.06
2018-07-14T18:38:33.087Z,36.23
2018-07-14T18:41:01.622Z,38.09
2018-07-14T18:43:30.216Z,39.64
2018-07-14T18:45:58.752Z,40.02
2018-07-14T18:48:27.340Z,40.51
2018-07-14T18:50:55.888Z,40.79
2018-07-14T18:53:24.780Z,42.25
2018-07-14T18:55:53.336Z,44.16
2018-07-14T18:58:21.907Z,44.65
2018-07-14T19:00:50.460Z,44.68
2018-07-14T19:03:19.072Z,43.89
2018-07-14T19:05:47.848Z,42.43
2018-07-14T19:08:16.421Z,44.24
2018-07-14T19:10:44.978Z,46.02
2018-07-14T19:13:13.579Z,45.65
2018-07-14T19:15:42.179Z,46.84
2018-07-14T19:18:10.741Z,48.15
2018-07-14T19:20:39.277Z,47.86
2018-07-14T19:23:07.863Z,47.51
2018-07-14T19:25:36.408Z,47.58
2018-07-14T19:28:05.008Z,47.54
2018-07-14T19:30:33.552Z,47.57
2018-07-14T19:33:02.163Z,49.32
2018-07-14T19:35:30.742Z,47.83
2018-07-14T19:37:59.296Z,49.99
2018-07-14T19:40:27.829Z,49.13
2018-07-14T19:42:56.438Z,51.85
2018-07-14T19:45:24.960Z,51.63
2018-07-14T19:47:53.512Z,52.84
2018-07-14T19:50:22.050Z,52.76
2018-07-14T19:52:50.631Z,52.14
2018-07-14T19:55:19.148Z,53.94
2018-07-14T19:57:47.720Z,54.75
2018-07-14T20:00:16.254Z,55.96
2018-07-14T20:02:44.801Z,56.27
2018-07-14T20:05:13.368Z,55.96
2018-07-14T20:07:41.903Z,56.97
2018-07-14T20:10:10.457Z,56.33
2018-07-14T20:12:38.976Z,57.14
2018-07-14T20:15:07.552Z,57.09
2018-07-14T20:17:36.064Z,58.44
2018-07-14T20:20:04.629Z,58.57
2018-07-14T20:22:33.192Z,60.03
2018-07-14T20:25:01.736Z,60.05
2018-07-14T20:27:30.253Z,58.33
2018-07-14T20:29:58.861Z,57.65
2018-07-14T20:32:27.368Z,54.52
2018-07-14T20:34:56.661Z,53.79
2018-07-14T20:37:25.204Z,53.20
2018-07-14T20:39:53.757Z,53.33
2018-07-14T20:42:22.273Z,53.91
2018-07-14T20:44:51.111Z,56.56
2018-07-14T20:47:19.628Z,57.25
2018-07-14T20:49:48.200Z,59.11
2018-07-14T20:52:16.765Z,58.79
2018-07-14T20:54:45.355Z,58.70
2018-07-14T20:57:13.891Z,59.38
2018-07-14T20:59:42.449Z,57.35
2018-07-14T21:02:10.971Z,56.12
2018-07-14T21:04:39.524Z,57.38
2018-07-14T21:07:08.041Z,55.88
2018-07-14T21:09:36.653Z,55.01
2018-07-14T21:12:05.211Z,55.81
2018-07-14T21:14:33.805Z,57.32
2018-07-14T21:17:06.432Z,56.42
2018-07-14T21:19:36.707Z,55.48
2018-07-14T21:22:06.752Z,55.43
2018-07-14T21:24:35.364Z,54.38
2018-07-14T21:27:03.900Z,55.45
2018-07-14T21:29:33.332Z,56.15
2018-07-14T21:32:01.967Z,54.95
2018-07-14T21:34:32.833Z,55.08
2018-07-14T21:37:01.401Z,55.08
2018-07-14T21:39:30.171Z,55.13
2018-07-14T21:41:59.090Z,55.60
2018-07-14T21:44:28.768Z,56.91
2018-07-14T21:46:57.312Z,58.24
2018-07-14T21:49:26.089Z,58.28
2018-07-14T21:51:56.853Z,58.80
2018-07-14T21:54:27.002Z,58.84
2018-07-14T21:56:56.052Z,59.06
2018-07-14T21:59:24.661Z,59.06
2018-07-14T22:01:53.560Z,59.46
2018-07-14T22:04:22.729Z,59.44
2018-07-14T22:06:52.067Z,59.28
2018-07-14T22:09:20.653Z,58.45
2018-07-14T22:11:49.572Z,59.78
2018-07-14T22:14:18.313Z,61.53
2018-07-14T22:16:49.964Z,60.88
2018-07-14T22:19:20.717Z,62.39
2018-07-14T22:21:50.725Z,63.07
2018-07-14T22:24:19.357Z,64.09
2018-07-14T22:26:48.365Z,65.18
2018-07-14T22:29:17.859Z,65.25
2018-07-14T22:31:47.028Z,66.11
2018-07-14T22:34:16.049Z,68.47
2018-07-14T22:36:47.092Z,70.05
2018-07-14T22:39:17.807Z,70.65
2018-07-14T22:41:49.274Z,69.59
2018-07-14T22:44:19.890Z,69.54
2018-07-14T22:46:49.982Z,69.86
2018-07-14T22:49:19.457Z,69.67
2018-07-14T22:51:48.693Z,71.29
2018-07-14T22:54:18.276Z,71.25
2018-07-14T22:56:48.211Z,72.08
2018-07-14T22:59:17.054Z,70.60
2018-07-14T23:01:46.922Z,68.76
2018-07-14T23:04:16.702Z,69.06
2018-07-14T23:06:47.433Z,69.18
2018-07-14T23:09:17.955Z,69.06
2018-07-14T23:11:47.458Z,69.29
2018-07-14T23:14:23.380Z,71.31
2018-07-14T23:16:53.186Z,70.95
2018-07-14T23:19:22.026Z,70.30
2018-07-14T23:21:51.832Z,67.54
2018-07-14T23:24:22.319Z,67.97
2018-07-14T23:26:51.931Z,68.96
2018-07-14T23:29:21.360Z,70.01
2018-07-14T23:31:51.056Z,70.21
2018-07-14T23:34:20.301Z,69.85
2018-07-14T23:36:50.301Z,69.80
2018-07-14T23:39:21.065Z,69.80
2018-07-14T23:41:51.834Z,70.11
2018-07-14T23:44:21.294Z,70.20
2018-07-14T23:46:50.775Z,69.55
2018-07-14T23:49:21.096Z,69.70
2018-07-14T23:51:50.099Z,69.51
2018-07-14T23:54:19.410Z,68.51
2018-07-14T23:56:48.794Z,69.01
2018-07-14T23:59:18.568Z,68.89
